sensor_id;sensor_type;location;lat;lon;timestamp;P1;durP1;ratioP1;P2;durP2;ratioP2
30000;SDS011;16845;48.670;9.000;2022-08-03T00:02:15;6.80;;;6.03;;
30000;SDS011;16845;48.670;9.000;2022-08-03T00:04:43;10.38;;;6.85;;
30000;SDS011;16845;48.670;9.000;2022-08-03T00:07:12;8.30;;;5.97;;
30000;SDS011;16845;48.670;9.000;2022-08-03T00:09:40;7.80;;;6.45;;
30000;SDS011;16845;48.670;9.000;2022-08-03T00:12:08;9.00;;;6.30;;
30000;SDS011;16845;48.670;9.000;2022-08-03T00:14:37;6.88;;;6.18;;
30000;SDS011;16845;48.670;9.000;2022-08-03T00:17:05;8.20;;;6.72;;
30000;SDS011;16845;48.670;9.000;2022-08-03T00:19:33;15.05;;;6.65;;
30000;SDS011;16845;48.670;9.000;2022-08-03T00:22:01;8.57;;;6.90;;
30000;SDS011;16845;48.670;9.000;2022-08-03T00:24:29;6.70;;;6.03;;
30000;SDS011;16845;48.670;9.000;2022-08-03T00:26:57;8.88;;;6.00;;
30000;SDS011;16845;48.670;9.000;2022-08-03T00:29:25;8.23;;;5.55;;
30000;SDS011;16845;48.670;9.000;2022-08-03T00:31:54;8.45;;;5.80;;
30000;SDS011;16845;48.670;9.000;2022-08-03T00:34:25;7.50;;;5.97;;
30000;SDS011;16845;48.670;9.000;2022-08-03T00:37:13;10.52;;;5.90;;
30000;SDS011;16845;48.670;9.000;2022-08-03T00:39:41;14.35;;;5.90;;
30000;SDS011;16845;48.670;9.000;2022-08-03T00:42:11;9.10;;;5.78;;
30000;SDS011;16845;48.670;9.000;2022-08-03T00:44:40;7.43;;;5.07;;
30000;SDS011;16845;48.670;9.000;2022-08-03T00:47:11;7.05;;;5.82;;
30000;SDS011;16845;48.670;9.000;2022-08-03T00:49:39;7.55;;;6.00;;
30000;SDS011;16845;48.670;9.000;2022-08-03T00:52:07;6.18;;;5.57;;
30000;SDS011;16845;48.670;9.000;2022-08-03T00:54:36;8.13;;;5.78;;
30000;SDS011;16845;48.670;9.000;2022-08-03T00:57:05;9.55;;;5.75;;
30000;SDS011;16845;48.670;9.000;2022-08-03T00:59:33;5.85;;;5.22;;
30000;SDS011;16845;48.670;9.000;2022-08-03T01:02:03;12.80;;;6.38;;
30000;SDS011;16845;48.670;9.000;2022-08-03T01:04:33;8.02;;;6.03;;
30000;SDS011;16845;48.670;9.000;2022-08-03T01:07:02;7.35;;;5.63;;
30000;SDS011;16845;48.670;9.000;2022-08-03T01:09:37;8.32;;;6.82;;
30000;SDS011;16845;48.670;9.000;2022-08-03T01:12:13;7.05;;;6.32;;
30000;SDS011;16845;48.670;9.000;2022-08-03T01:14:49;11.32;;;6.97;;
30000;SDS011;16845;48.670;9.000;2022-08-03T01:17:22;10.05;;;6.30;;
30000;SDS011;16845;48.670;9.000;2022-08-03T01:19:57;11.70;;;6.18;;
30000;SDS011;16845;48.670;9.000;2022-08-03T01:22:38;8.40;;;5.50;;
30000;SDS011;16845;48.670;9.000;2022-08-03T01:25:23;6.53;;;5.68;;
30000;SDS011;16845;48.670;9.000;2022-08-03T01:28:06;7.38;;;5.95;;
30000;SDS011;16845;48.670;9.000;2022-08-03T01:30:47;10.07;;;6.07;;
30000;SDS011;16845;48.670;9.000;2022-08-03T01:33:18;6.72;;;5.82;;
30000;SDS011;16845;48.670;9.000;2022-08-03T01:35:51;6.35;;;5.10;;
30000;SDS011;16845;48.670;9.000;2022-08-03T01:38:24;8.48;;;5.15;;
30000;SDS011;16845;48.670;9.000;2022-08-03T01:40:55;8.88;;;5.80;;
30000;SDS011;16845;48.670;9.000;2022-08-03T01:43:25;8.73;;;5.53;;
30000;SDS011;16845;48.670;9.000;2022-08-03T01:46:16;12.77;;;5.88;;
30000;SDS011;16845;48.670;9.000;2022-08-03T01:48:46;5.97;;;5.38;;
30000;SDS011;16845;48.670;9.000;2022-08-03T01:51:15;8.48;;;5.40;;
30000;SDS011;16845;48.670;9.000;2022-08-03T01:53:46;5.53;;;4.78;;
30000;SDS011;16845;48.670;9.000;2022-08-03T01:56:16;13.07;;;6.00;;
30000;SDS011;16845;48.670;9.000;2022-08-03T01:58:46;9.10;;;5.85;;
30000;SDS011;16845;48.670;9.000;2022-08-03T02:01:17;7.53;;;5.68;;
30000;SDS011;16845;48.670;9.000;2022-08-03T02:03:48;9.77;;;4.90;;
30000;SDS011;16845;48.670;9.000;2022-08-03T02:06:25;9.48;;;5.95;;
30000;SDS011;16845;48.670;9.000;2022-08-03T02:09:14;6.90;;;5.68;;
30000;SDS011;16845;48.670;9.000;2022-08-03T02:11:46;10.02;;;5.45;;
30000;SDS011;16845;48.670;9.000;2022-08-03T02:14:15;18.83;;;6.63;;
30000;SDS011;16845;48.670;9.000;2022-08-03T02:16:46;9.35;;;6.72;;
30000;SDS011;16845;48.670;9.000;2022-08-03T02:19:16;7.82;;;6.88;;
30000;SDS011;16845;48.670;9.000;2022-08-03T02:21:45;11.95;;;7.80;;
30000;SDS011;16845;48.670;9.000;2022-08-03T02:24:26;7.28;;;6.22;;
30000;SDS011;16845;48.670;9.000;2022-08-03T02:26:55;8.30;;;6.50;;
30000;SDS011;16845;48.670;9.000;2022-08-03T02:29:26;7.80;;;6.35;;
30000;SDS011;16845;48.670;9.000;2022-08-03T02:32:07;10.68;;;5.95;;
30000;SDS011;16845;48.670;9.000;2022-08-03T02:34:39;11.35;;;6.05;;
30000;SDS011;16845;48.670;9.000;2022-08-03T02:37:11;9.30;;;5.43;;
30000;SDS011;16845;48.670;9.000;2022-08-03T02:39:40;5.70;;;5.10;;
30000;SDS011;16845;48.670;9.000;2022-08-03T02:42:09;11.88;;;5.88;;
30000;SDS011;16845;48.670;9.000;2022-08-03T02:44:40;6.80;;;5.47;;
30000;SDS011;16845;48.670;9.000;2022-08-03T02:47:14;6.95;;;5.57;;
30000;SDS011;16845;48.670;9.000;2022-08-03T02:49:46;8.85;;;5.80;;
30000;SDS011;16845;48.670;9.000;2022-08-03T02:52:18;11.07;;;5.72;;
30000;SDS011;16845;48.670;9.000;2022-08-03T02:54:49;6.85;;;5.75;;
30000;SDS011;16845;48.670;9.000;2022-08-03T02:57:19;8.38;;;5.72;;
30000;SDS011;16845;48.670;9.000;2022-08-03T02:59:49;10.93;;;4.90;;
30000;SDS011;16845;48.670;9.000;2022-08-03T03:02:20;6.70;;;5.45;;
30000;SDS011;16845;48.670;9.000;2022-08-03T03:04:49;8.07;;;5.82;;
30000;SDS011;16845;48.670;9.000;2022-08-03T03:07:38;7.30;;;6.30;;
30000;SDS011;16845;48.670;9.000;2022-08-03T03:10:18;8.60;;;6.45;;
30000;SDS011;16845;48.670;9.000;2022-08-03T03:12:47;11.73;;;5.80;;
30000;SDS011;16845;48.670;9.000;2022-08-03T03:15:17;9.52;;;7.03;;
30000;SDS011;16845;48.670;9.000;2022-08-03T03:17:47;8.35;;;6.60;;
30000;SDS011;16845;48.670;9.000;2022-08-03T03:20:16;11.80;;;6.43;;
30000;SDS011;16845;48.670;9.000;2022-08-03T03:22:56;8.98;;;5.45;;
30000;SDS011;16845;48.670;9.000;2022-08-03T03:25:26;12.32;;;6.57;;
30000;SDS011;16845;48.670;9.000;2022-08-03T03:27:55;7.38;;;6.35;;
30000;SDS011;16845;48.670;9.000;2022-08-03T03:30:23;6.28;;;5.43;;
30000;SDS011;16845;48.670;9.000;2022-08-03T03:32:53;9.23;;;5.50;;
30000;SDS011;16845;48.670;9.000;2022-08-03T03:35:21;8.23;;;6.10;;
30000;SDS011;16845;48.670;9.000;2022-08-03T03:37:49;8.98;;;6.25;;
30000;SDS011;16845;48.670;9.000;2022-08-03T03:40:18;8.02;;;5.85;;
30000;SDS011;16845;48.670;9.000;2022-08-03T03:42:46;9.20;;;5.55;;
30000;SDS011;16845;48.670;9.000;2022-08-03T03:45:15;9.80;;;6.05;;
30000;SDS011;16845;48.670;9.000;2022-08-03T03:47:44;6.45;;;5.55;;
30000;SDS011;16845;48.670;9.000;2022-08-03T03:50:13;7.15;;;5.88;;
30000;SDS011;16845;48.670;9.000;2022-08-03T03:52:44;8.18;;;6.05;;
30000;SDS011;16845;48.670;9.000;2022-08-03T03:55:14;9.18;;;5.45;;
30000;SDS011;16845;48.670;9.000;2022-08-03T03:57:43;12.52;;;6.20;;
30000;SDS011;16845;48.670;9.000;2022-08-03T04:00:12;6.03;;;5.43;;
30000;SDS011;16845;48.670;9.000;2022-08-03T04:02:41;6.78;;;5.45;;
30000;SDS011;16845;48.670;9.000;2022-08-03T04:05:09;9.68;;;6.53;;
30000;SDS011;16845;48.670;9.000;2022-08-03T04:07:56;7.15;;;5.63;;
30000;SDS011;16845;48.670;9.000;2022-08-03T04:10:44;9.60;;;6.07;;
30000;SDS011;16845;48.670;9.000;2022-08-03T04:13:28;8.45;;;5.22;;
30000;SDS011;16845;48.670;9.000;2022-08-03T04:15:58;12.85;;;6.47;;
30000;SDS011;16845;48.670;9.000;2022-08-03T04:18:28;9.32;;;5.97;;
30000;SDS011;16845;48.670;9.000;2022-08-03T04:20:58;8.02;;;4.90;;
30000;SDS011;16845;48.670;9.000;2022-08-03T04:23:32;12.18;;;6.43;;
30000;SDS011;16845;48.670;9.000;2022-08-03T04:26:02;9.25;;;6.00;;
30000;SDS011;16845;48.670;9.000;2022-08-03T04:28:34;6.63;;;4.93;;
30000;SDS011;16845;48.670;9.000;2022-08-03T04:31:05;7.25;;;5.65;;
30000;SDS011;16845;48.670;9.000;2022-08-03T04:33:34;6.20;;;5.60;;
30000;SDS011;16845;48.670;9.000;2022-08-03T04:36:05;8.75;;;5.68;;
30000;SDS011;16845;48.670;9.000;2022-08-03T04:38:37;12.32;;;5.57;;
30000;SDS011;16845;48.670;9.000;2022-08-03T04:41:10;8.90;;;5.13;;
30000;SDS011;16845;48.670;9.000;2022-08-03T04:43:39;9.13;;;5.32;;
30000;SDS011;16845;48.670;9.000;2022-08-03T04:46:07;11.25;;;5.78;;
30000;SDS011;16845;48.670;9.000;2022-08-03T04:48:36;8.35;;;6.53;;
30000;SDS011;16845;48.670;9.000;2022-08-03T04:51:09;6.38;;;5.10;;
30000;SDS011;16845;48.670;9.000;2022-08-03T04:53:39;17.10;;;5.80;;
30000;SDS011;16845;48.670;9.000;2022-08-03T04:56:09;6.07;;;5.13;;
30000;SDS011;16845;48.670;9.000;2022-08-03T04:58:36;7.90;;;4.70;;
30000;SDS011;16845;48.670;9.000;2022-08-03T05:01:04;5.97;;;5.15;;
30000;SDS011;16845;48.670;9.000;2022-08-03T05:03:32;7.88;;;5.50;;
30000;SDS011;16845;48.670;9.000;2022-08-03T05:06:00;7.65;;;5.20;;
30000;SDS011;16845;48.670;9.000;2022-08-03T05:08:36;17.83;;;5.47;;
30000;SDS011;16845;48.670;9.000;2022-08-03T05:11:15;7.95;;;5.93;;
30000;SDS011;16845;48.670;9.000;2022-08-03T05:13:43;5.93;;;5.25;;
30000;SDS011;16845;48.670;9.000;2022-08-03T05:16:12;6.15;;;5.55;;
30000;SDS011;16845;48.670;9.000;2022-08-03T05:18:40;11.65;;;5.25;;
30000;SDS011;16845;48.670;9.000;2022-08-03T05:21:08;7.65;;;5.55;;
30000;SDS011;16845;48.670;9.000;2022-08-03T05:23:39;7.63;;;5.32;;
30000;SDS011;16845;48.670;9.000;2022-08-03T05:26:07;9.63;;;5.38;;
30000;SDS011;16845;48.670;9.000;2022-08-03T05:28:38;9.48;;;5.53;;
30000;SDS011;16845;48.670;9.000;2022-08-03T05:31:16;8.90;;;5.28;;
30000;SDS011;16845;48.670;9.000;2022-08-03T05:33:44;8.15;;;5.10;;
30000;SDS011;16845;48.670;9.000;2022-08-03T05:36:14;7.57;;;4.72;;
30000;SDS011;16845;48.670;9.000;2022-08-03T05:38:42;6.70;;;4.75;;
30000;SDS011;16845;48.670;9.000;2022-08-03T05:41:10;6.07;;;4.40;;
30000;SDS011;16845;48.670;9.000;2022-08-03T05:43:50;5.00;;;4.50;;
30000;SDS011;16845;48.670;9.000;2022-08-03T05:46:19;6.88;;;4.72;;
30000;SDS011;16845;48.670;9.000;2022-08-03T05:48:47;10.25;;;4.38;;
30000;SDS011;16845;48.670;9.000;2022-08-03T05:51:15;5.93;;;4.88;;
30000;SDS011;16845;48.670;9.000;2022-08-03T05:53:43;5.32;;;4.82;;
30000;SDS011;16845;48.670;9.000;2022-08-03T05:56:11;9.20;;;4.95;;
30000;SDS011;16845;48.670;9.000;2022-08-03T05:58:42;5.38;;;4.88;;
30000;SDS011;16845;48.670;9.000;2022-08-03T06:01:12;8.18;;;4.88;;
30000;SDS011;16845;48.670;9.000;2022-08-03T06:03:40;9.23;;;4.25;;
30000;SDS011;16845;48.670;9.000;2022-08-03T06:06:08;4.95;;;3.70;;
30000;SDS011;16845;48.670;9.000;2022-08-03T06:08:37;7.07;;;4.32;;
30000;SDS011;16845;48.670;9.000;2022-08-03T06:11:05;5.65;;;3.83;;
30000;SDS011;16845;48.670;9.000;2022-08-03T06:13:33;5.53;;;4.47;;
30000;SDS011;16845;48.670;9.000;2022-08-03T06:16:01;6.65;;;4.50;;
30000;SDS011;16845;48.670;9.000;2022-08-03T06:18:30;6.25;;;4.20;;
30000;SDS011;16845;48.670;9.000;2022-08-03T06:20:58;5.68;;;3.85;;
30000;SDS011;16845;48.670;9.000;2022-08-03T06:23:41;9.68;;;3.70;;
30000;SDS011;16845;48.670;9.000;2022-08-03T06:26:20;6.75;;;3.80;;
30000;SDS011;16845;48.670;9.000;2022-08-03T06:28:48;4.30;;;3.33;;
30000;SDS011;16845;48.670;9.000;2022-08-03T06:31:19;5.13;;;3.75;;
30000;SDS011;16845;48.670;9.000;2022-08-03T06:33:49;7.68;;;3.63;;
30000;SDS011;16845;48.670;9.000;2022-08-03T06:36:37;6.60;;;3.92;;
30000;SDS011;16845;48.670;9.000;2022-08-03T06:39:05;4.25;;;3.33;;
30000;SDS011;16845;48.670;9.000;2022-08-03T06:41:33;4.50;;;3.40;;
30000;SDS011;16845;48.670;9.000;2022-08-03T06:44:03;6.22;;;2.60;;
30000;SDS011;16845;48.670;9.000;2022-08-03T06:46:31;5.18;;;2.90;;
30000;SDS011;16845;48.670;9.000;2022-08-03T06:49:00;3.45;;;2.58;;
30000;SDS011;16845;48.670;9.000;2022-08-03T06:51:28;2.78;;;2.33;;
30000;SDS011;16845;48.670;9.000;2022-08-03T06:54:16;2.78;;;2.42;;
30000;SDS011;16845;48.670;9.000;2022-08-03T06:56:44;3.08;;;2.65;;
30000;SDS011;16845;48.670;9.000;2022-08-03T06:59:12;4.93;;;2.33;;
30000;SDS011;16845;48.670;9.000;2022-08-03T07:02:00;4.53;;;2.47;;
30000;SDS011;16845;48.670;9.000;2022-08-03T07:04:29;4.07;;;2.67;;
30000;SDS011;16845;48.670;9.000;2022-08-03T07:06:57;5.00;;;2.63;;
30000;SDS011;16845;48.670;9.000;2022-08-03T07:09:25;4.78;;;2.58;;
30000;SDS011;16845;48.670;9.000;2022-08-03T07:11:53;2.58;;;1.90;;
30000;SDS011;16845;48.670;9.000;2022-08-03T07:14:22;5.65;;;2.10;;
30000;SDS011;16845;48.670;9.000;2022-08-03T07:16:50;2.85;;;2.45;;
30000;SDS011;16845;48.670;9.000;2022-08-03T07:19:17;3.10;;;2.40;;
30000;SDS011;16845;48.670;9.000;2022-08-03T07:21:47;3.03;;;2.05;;
30000;SDS011;16845;48.670;9.000;2022-08-03T07:24:18;1.95;;;1.83;;
30000;SDS011;16845;48.670;9.000;2022-08-03T07:26:46;2.20;;;1.90;;
30000;SDS011;16845;48.670;9.000;2022-08-03T07:29:14;3.35;;;2.60;;
30000;SDS011;16845;48.670;9.000;2022-08-03T07:31:42;2.65;;;1.98;;
30000;SDS011;16845;48.670;9.000;2022-08-03T07:34:10;6.03;;;2.20;;
30000;SDS011;16845;48.670;9.000;2022-08-03T07:36:38;3.35;;;2.00;;
30000;SDS011;16845;48.670;9.000;2022-08-03T07:39:08;3.00;;;2.17;;
30000;SDS011;16845;48.670;9.000;2022-08-03T07:41:43;4.85;;;1.90;;
30000;SDS011;16845;48.670;9.000;2022-08-03T07:44:11;7.07;;;2.10;;
30000;SDS011;16845;48.670;9.000;2022-08-03T07:46:39;2.47;;;1.80;;
30000;SDS011;16845;48.670;9.000;2022-08-03T07:49:06;3.10;;;1.70;;
30000;SDS011;16845;48.670;9.000;2022-08-03T07:51:35;3.97;;;1.88;;
30000;SDS011;16845;48.670;9.000;2022-08-03T07:54:03;1.70;;;1.60;;
30000;SDS011;16845;48.670;9.000;2022-08-03T07:56:33;4.55;;;1.50;;
30000;SDS011;16845;48.670;9.000;2022-08-03T07:59:02;5.50;;;1.27;;
30000;SDS011;16845;48.670;9.000;2022-08-03T08:01:30;2.08;;;1.25;;
30000;SDS011;16845;48.670;9.000;2022-08-03T08:04:01;3.42;;;1.40;;
30000;SDS011;16845;48.670;9.000;2022-08-03T08:06:29;5.97;;;1.50;;
30000;SDS011;16845;48.670;9.000;2022-08-03T08:08:59;3.00;;;1.70;;
30000;SDS011;16845;48.670;9.000;2022-08-03T08:11:27;1.40;;;1.30;;
30000;SDS011;16845;48.670;9.000;2022-08-03T08:13:56;1.73;;;1.10;;
30000;SDS011;16845;48.670;9.000;2022-08-03T08:16:27;2.67;;;1.35;;
30000;SDS011;16845;48.670;9.000;2022-08-03T08:18:55;1.33;;;1.20;;
30000;SDS011;16845;48.670;9.000;2022-08-03T08:21:23;3.13;;;1.63;;
30000;SDS011;16845;48.670;9.000;2022-08-03T08:24:11;1.98;;;1.35;;
30000;SDS011;16845;48.670;9.000;2022-08-03T08:26:44;2.08;;;1.50;;
30000;SDS011;16845;48.670;9.000;2022-08-03T08:29:14;2.20;;;1.20;;
30000;SDS011;16845;48.670;9.000;2022-08-03T08:31:42;3.25;;;1.23;;
30000;SDS011;16845;48.670;9.000;2022-08-03T08:34:09;6.93;;;1.23;;
30000;SDS011;16845;48.670;9.000;2022-08-03T08:36:37;3.03;;;1.83;;
30000;SDS011;16845;48.670;9.000;2022-08-03T08:39:05;1.05;;;1.05;;
30000;SDS011;16845;48.670;9.000;2022-08-03T08:41:33;1.20;;;1.10;;
30000;SDS011;16845;48.670;9.000;2022-08-03T08:44:01;0.80;;;0.80;;
30000;SDS011;16845;48.670;9.000;2022-08-03T08:46:31;0.90;;;0.85;;
30000;SDS011;16845;48.670;9.000;2022-08-03T08:49:00;2.03;;;1.02;;
30000;SDS011;16845;48.670;9.000;2022-08-03T08:51:30;7.38;;;0.98;;
30000;SDS011;16845;48.670;9.000;2022-08-03T08:54:22;1.75;;;1.15;;
30000;SDS011;16845;48.670;9.000;2022-08-03T08:56:51;3.85;;;1.20;;
30000;SDS011;16845;48.670;9.000;2022-08-03T08:59:24;2.20;;;1.17;;
30000;SDS011;16845;48.670;9.000;2022-08-03T09:02:14;0.95;;;0.90;;
30000;SDS011;16845;48.670;9.000;2022-08-03T09:04:42;1.13;;;1.10;;
30000;SDS011;16845;48.670;9.000;2022-08-03T09:07:13;1.40;;;1.25;;
30000;SDS011;16845;48.670;9.000;2022-08-03T09:09:54;2.00;;;1.10;;
30000;SDS011;16845;48.670;9.000;2022-08-03T09:12:38;1.40;;;1.30;;
30000;SDS011;16845;48.670;9.000;2022-08-03T09:15:18;3.38;;;1.00;;
30000;SDS011;16845;48.670;9.000;2022-08-03T09:17:48;1.15;;;1.02;;
30000;SDS011;16845;48.670;9.000;2022-08-03T09:20:18;3.72;;;1.25;;
30000;SDS011;16845;48.670;9.000;2022-08-03T09:22:50;1.20;;;1.10;;
30000;SDS011;16845;48.670;9.000;2022-08-03T09:25:25;3.03;;;1.40;;
30000;SDS011;16845;48.670;9.000;2022-08-03T09:27:54;1.88;;;1.20;;
30000;SDS011;16845;48.670;9.000;2022-08-03T09:30:30;2.38;;;1.02;;
30000;SDS011;16845;48.670;9.000;2022-08-03T09:33:02;3.20;;;1.23;;
30000;SDS011;16845;48.670;9.000;2022-08-03T09:35:31;1.40;;;1.30;;
30000;SDS011;16845;48.670;9.000;2022-08-03T09:38:20;1.20;;;1.10;;
30000;SDS011;16845;48.670;9.000;2022-08-03T09:40:51;1.92;;;1.40;;
30000;SDS011;16845;48.670;9.000;2022-08-03T09:43:25;2.10;;;1.40;;
30000;SDS011;16845;48.670;9.000;2022-08-03T09:46:01;1.23;;;1.10;;
30000;SDS011;16845;48.670;9.000;2022-08-03T09:48:30;1.35;;;1.10;;
30000;SDS011;16845;48.670;9.000;2022-08-03T09:51:00;3.60;;;1.00;;
30000;SDS011;16845;48.670;9.000;2022-08-03T09:53:41;3.80;;;1.00;;
30000;SDS011;16845;48.670;9.000;2022-08-03T09:56:36;1.08;;;1.05;;
30000;SDS011;16845;48.670;9.000;2022-08-03T09:59:08;2.75;;;0.90;;
30000;SDS011;16845;48.670;9.000;2022-08-03T10:01:37;1.35;;;0.98;;
30000;SDS011;16845;48.670;9.000;2022-08-03T10:04:12;4.75;;;1.15;;
30000;SDS011;16845;48.670;9.000;2022-08-03T10:06:42;0.88;;;0.88;;
30000;SDS011;16845;48.670;9.000;2022-08-03T10:09:11;3.70;;;1.08;;
30000;SDS011;16845;48.670;9.000;2022-08-03T10:11:41;1.90;;;1.23;;
30000;SDS011;16845;48.670;9.000;2022-08-03T10:14:12;1.17;;;0.98;;
30000;SDS011;16845;48.670;9.000;2022-08-03T10:16:45;1.48;;;1.02;;
30000;SDS011;16845;48.670;9.000;2022-08-03T10:19:15;3.95;;;1.20;;
30000;SDS011;16845;48.670;9.000;2022-08-03T10:21:45;1.85;;;1.20;;
30000;SDS011;16845;48.670;9.000;2022-08-03T10:24:19;1.98;;;1.20;;
30000;SDS011;16845;48.670;9.000;2022-08-03T10:26:51;2.67;;;1.27;;
30000;SDS011;16845;48.670;9.000;2022-08-03T10:29:23;3.40;;;1.25;;
30000;SDS011;16845;48.670;9.000;2022-08-03T10:31:55;3.00;;;1.23;;
30000;SDS011;16845;48.670;9.000;2022-08-03T10:34:27;5.13;;;1.23;;
30000;SDS011;16845;48.670;9.000;2022-08-03T10:37:00;1.10;;;1.00;;
30000;SDS011;16845;48.670;9.000;2022-08-03T10:39:34;3.08;;;1.33;;
30000;SDS011;16845;48.670;9.000;2022-08-03T10:42:02;5.70;;;2.13;;
30000;SDS011;16845;48.670;9.000;2022-08-03T10:44:40;2.95;;;1.13;;
30000;SDS011;16845;48.670;9.000;2022-08-03T10:47:09;1.35;;;1.00;;
30000;SDS011;16845;48.670;9.000;2022-08-03T10:49:38;2.80;;;1.20;;
30000;SDS011;16845;48.670;9.000;2022-08-03T10:52:08;1.00;;;0.90;;
30000;SDS011;16845;48.670;9.000;2022-08-03T10:54:56;1.40;;;1.30;;
30000;SDS011;16845;48.670;9.000;2022-08-03T10:57:44;1.33;;;1.15;;
30000;SDS011;16845;48.670;9.000;2022-08-03T11:00:25;1.52;;;0.90;;
30000;SDS011;16845;48.670;9.000;2022-08-03T11:03:00;1.23;;;1.00;;
30000;SDS011;16845;48.670;9.000;2022-08-03T11:05:34;1.23;;;0.88;;
30000;SDS011;16845;48.670;9.000;2022-08-03T11:08:17;1.35;;;1.00;;
30000;SDS011;16845;48.670;9.000;2022-08-03T11:10:50;1.33;;;1.23;;
30000;SDS011;16845;48.670;9.000;2022-08-03T11:13:19;2.25;;;1.15;;
30000;SDS011;16845;48.670;9.000;2022-08-03T11:15:51;3.53;;;1.23;;
30000;SDS011;16845;48.670;9.000;2022-08-03T11:18:27;2.15;;;1.17;;
30000;SDS011;16845;48.670;9.000;2022-08-03T11:20:57;5.18;;;1.00;;
30000;SDS011;16845;48.670;9.000;2022-08-03T11:23:39;4.55;;;1.30;;
30000;SDS011;16845;48.670;9.000;2022-08-03T11:26:28;1.13;;;0.75;;
30000;SDS011;16845;48.670;9.000;2022-08-03T11:29:25;1.88;;;1.48;;
30000;SDS011;16845;48.670;9.000;2022-08-03T11:31:55;3.10;;;1.13;;
30000;SDS011;16845;48.670;9.000;2022-08-03T11:34:23;2.35;;;1.27;;
30000;SDS011;16845;48.670;9.000;2022-08-03T11:39:53;1.80;;;1.48;;
30000;SDS011;16845;48.670;9.000;2022-08-03T11:42:38;2.58;;;1.00;;
30000;SDS011;16845;48.670;9.000;2022-08-03T11:45:13;3.95;;;1.40;;
30000;SDS011;16845;48.670;9.000;2022-08-03T11:47:41;2.10;;;1.92;;
30000;SDS011;16845;48.670;9.000;2022-08-03T11:50:16;1.55;;;1.15;;
30000;SDS011;16845;48.670;9.000;2022-08-03T11:52:48;6.82;;;2.15;;
30000;SDS011;16845;48.670;9.000;2022-08-03T11:55:17;1.55;;;1.30;;
30000;SDS011;16845;48.670;9.000;2022-08-03T11:57:47;1.58;;;1.20;;
30000;SDS011;16845;48.670;9.000;2022-08-03T12:00:35;1.40;;;1.30;;
30000;SDS011;16845;48.670;9.000;2022-08-03T12:03:04;3.03;;;1.27;;
30000;SDS011;16845;48.670;9.000;2022-08-03T12:05:38;1.17;;;1.10;;
30000;SDS011;16845;48.670;9.000;2022-08-03T12:08:27;2.20;;;1.48;;
30000;SDS011;16845;48.670;9.000;2022-08-03T12:10:58;1.55;;;1.35;;
30000;SDS011;16845;48.670;9.000;2022-08-03T12:13:34;1.45;;;1.20;;
30000;SDS011;16845;48.670;9.000;2022-08-03T12:16:24;2.08;;;1.17;;
30000;SDS011;16845;48.670;9.000;2022-08-03T12:18:54;3.65;;;1.30;;
30000;SDS011;16845;48.670;9.000;2022-08-03T12:21:22;3.38;;;1.33;;
30000;SDS011;16845;48.670;9.000;2022-08-03T12:23:56;1.40;;;1.30;;
30000;SDS011;16845;48.670;9.000;2022-08-03T12:26:25;4.63;;;1.40;;
30000;SDS011;16845;48.670;9.000;2022-08-03T12:28:55;2.65;;;1.45;;
30000;SDS011;16845;48.670;9.000;2022-08-03T12:31:23;0.95;;;0.95;;
30000;SDS011;16845;48.670;9.000;2022-08-03T12:33:55;2.67;;;1.23;;
30000;SDS011;16845;48.670;9.000;2022-08-03T12:36:25;1.60;;;1.08;;
30000;SDS011;16845;48.670;9.000;2022-08-03T12:38:54;2.85;;;1.38;;
30000;SDS011;16845;48.670;9.000;2022-08-03T12:41:29;2.03;;;1.08;;
30000;SDS011;16845;48.670;9.000;2022-08-03T12:43:59;1.08;;;0.95;;
30000;SDS011;16845;48.670;9.000;2022-08-03T12:46:29;2.03;;;1.27;;
30000;SDS011;16845;48.670;9.000;2022-08-03T12:49:00;2.17;;;1.30;;
30000;SDS011;16845;48.670;9.000;2022-08-03T12:51:34;1.40;;;1.30;;
30000;SDS011;16845;48.670;9.000;2022-08-03T12:54:04;2.95;;;1.23;;
30000;SDS011;16845;48.670;9.000;2022-08-03T12:56:32;2.70;;;1.15;;
30000;SDS011;16845;48.670;9.000;2022-08-03T13:02:00;1.77;;;1.27;;
30000;SDS011;16845;48.670;9.000;2022-08-03T13:04:35;2.45;;;1.30;;
30000;SDS011;16845;48.670;9.000;2022-08-03T13:07:03;0.90;;;0.90;;
30000;SDS011;16845;48.670;9.000;2022-08-03T13:09:41;1.10;;;0.90;;
30000;SDS011;16845;48.670;9.000;2022-08-03T13:12:11;3.05;;;1.25;;
30000;SDS011;16845;48.670;9.000;2022-08-03T13:14:40;2.63;;;1.00;;
30000;SDS011;16845;48.670;9.000;2022-08-03T13:17:09;0.93;;;0.90;;
30000;SDS011;16845;48.670;9.000;2022-08-03T13:19:38;1.88;;;1.00;;
30000;SDS011;16845;48.670;9.000;2022-08-03T13:22:09;1.00;;;1.00;;
30000;SDS011;16845;48.670;9.000;2022-08-03T13:24:38;1.33;;;1.02;;
30000;SDS011;16845;48.670;9.000;2022-08-03T13:27:08;1.85;;;1.20;;
30000;SDS011;16845;48.670;9.000;2022-08-03T13:29:56;2.05;;;1.10;;
30000;SDS011;16845;48.670;9.000;2022-08-03T13:32:24;2.42;;;0.90;;
30000;SDS011;16845;48.670;9.000;2022-08-03T13:34:52;0.93;;;0.93;;
30000;SDS011;16845;48.670;9.000;2022-08-03T13:37:20;1.63;;;1.02;;
30000;SDS011;16845;48.670;9.000;2022-08-03T13:39:50;4.72;;;1.88;;
30000;SDS011;16845;48.670;9.000;2022-08-03T13:42:26;1.00;;;1.00;;
30000;SDS011;16845;48.670;9.000;2022-08-03T13:44:55;2.65;;;0.98;;
30000;SDS011;16845;48.670;9.000;2022-08-03T13:47:23;2.20;;;1.20;;
30000;SDS011;16845;48.670;9.000;2022-08-03T13:49:52;2.15;;;1.02;;
30000;SDS011;16845;48.670;9.000;2022-08-03T13:52:28;1.77;;;1.23;;
30000;SDS011;16845;48.670;9.000;2022-08-03T13:54:59;1.80;;;1.20;;
30000;SDS011;16845;48.670;9.000;2022-08-03T13:57:27;1.23;;;1.13;;
30000;SDS011;16845;48.670;9.000;2022-08-03T14:00:15;1.83;;;1.25;;
30000;SDS011;16845;48.670;9.000;2022-08-03T14:02:53;4.32;;;1.50;;
30000;SDS011;16845;48.670;9.000;2022-08-03T14:05:31;3.33;;;1.40;;
30000;SDS011;16845;48.670;9.000;2022-08-03T14:07:59;1.20;;;1.10;;
30000;SDS011;16845;48.670;9.000;2022-08-03T14:10:31;1.83;;;1.27;;
30000;SDS011;16845;48.670;9.000;2022-08-03T14:13:03;2.90;;;1.40;;
30000;SDS011;16845;48.670;9.000;2022-08-03T14:15:31;3.15;;;1.30;;
30000;SDS011;16845;48.670;9.000;2022-08-03T14:18:04;1.42;;;1.33;;
30000;SDS011;16845;48.670;9.000;2022-08-03T14:20:40;1.90;;;1.00;;
30000;SDS011;16845;48.670;9.000;2022-08-03T14:23:15;3.42;;;1.60;;
30000;SDS011;16845;48.670;9.000;2022-08-03T14:25:45;3.83;;;1.20;;
30000;SDS011;16845;48.670;9.000;2022-08-03T14:28:18;5.75;;;1.88;;
30000;SDS011;16845;48.670;9.000;2022-08-03T14:30:47;1.35;;;1.20;;
30000;SDS011;16845;48.670;9.000;2022-08-03T14:33:15;6.65;;;1.30;;
30000;SDS011;16845;48.670;9.000;2022-08-03T14:35:43;5.10;;;1.50;;
30000;SDS011;16845;48.670;9.000;2022-08-03T14:38:11;3.00;;;1.70;;
30000;SDS011;16845;48.670;9.000;2022-08-03T14:40:39;3.55;;;1.67;;
30000;SDS011;16845;48.670;9.000;2022-08-03T14:43:09;2.28;;;1.70;;
30000;SDS011;16845;48.670;9.000;2022-08-03T14:45:37;1.60;;;1.50;;
30000;SDS011;16845;48.670;9.000;2022-08-03T14:48:05;2.42;;;1.90;;
30000;SDS011;16845;48.670;9.000;2022-08-03T14:50:53;3.88;;;1.50;;
30000;SDS011;16845;48.670;9.000;2022-08-03T14:53:22;1.50;;;1.40;;
30000;SDS011;16845;48.670;9.000;2022-08-03T14:55:50;5.40;;;2.05;;
30000;SDS011;16845;48.670;9.000;2022-08-03T14:58:20;3.25;;;1.38;;
30000;SDS011;16845;48.670;9.000;2022-08-03T15:00:52;1.42;;;1.33;;
30000;SDS011;16845;48.670;9.000;2022-08-03T15:03:21;2.03;;;1.15;;
30000;SDS011;16845;48.670;9.000;2022-08-03T15:05:50;2.85;;;1.67;;
30000;SDS011;16845;48.670;9.000;2022-08-03T15:08:18;3.90;;;1.63;;
30000;SDS011;16845;48.670;9.000;2022-08-03T15:10:47;1.50;;;1.40;;
30000;SDS011;16845;48.670;9.000;2022-08-03T15:13:15;2.55;;;1.58;;
30000;SDS011;16845;48.670;9.000;2022-08-03T15:15:46;3.28;;;1.55;;
30000;SDS011;16845;48.670;9.000;2022-08-03T15:18:14;1.95;;;1.75;;
30000;SDS011;16845;48.670;9.000;2022-08-03T15:20:42;7.75;;;1.77;;